sensor_id;sensor_type;location;lat;lon;timestamp;temperature;humidity
4530;DHT22;2277;51.626;7.516;2023-08-31T00:02:02;15.20;99.90
4530;DHT22;2277;51.626;7.516;2023-08-31T00:04:29;15.20;99.90
4530;DHT22;2277;51.626;7.516;2023-08-31T00:06:55;15.10;99.90
4530;DHT22;2277;51.626;7.516;2023-08-31T00:09:22;15.20;99.90
4530;DHT22;2277;51.626;7.516;2023-08-31T00:11:49;15.20;99.90
4530;DHT22;2277;51.626;7.516;2023-08-31T00:14:15;15.20;99.90
4530;DHT22;2277;51.626;7.516;2023-08-31T00:16:41;15.20;99.90
4530;DHT22;2277;51.626;7.516;2023-08-31T00:19:07;15.20;99.90
4530;DHT22;2277;51.626;7.516;2023-08-31T00:21:32;15.20;99.90
4530;DHT22;2277;51.626;7.516;2023-08-31T00:23:58;15.20;99.90
4530;DHT22;2277;51.626;7.516;2023-08-31T00:26:24;15.20;99.90
4530;DHT22;2277;51.626;7.516;2023-08-31T00:28:50;15.20;99.90
4530;DHT22;2277;51.626;7.516;2023-08-31T00:31:16;15.20;99.90
4530;DHT22;2277;51.626;7.516;2023-08-31T00:33:41;15.10;99.90
4530;DHT22;2277;51.626;7.516;2023-08-31T00:36:07;15.20;99.90
4530;DHT22;2277;51.626;7.516;2023-08-31T00:38:33;15.20;99.90
4530;DHT22;2277;51.626;7.516;2023-08-31T00:40:58;15.20;99.90
4530;DHT22;2277;51.626;7.516;2023-08-31T00:43:24;15.10;99.90
4530;DHT22;2277;51.626;7.516;2023-08-31T00:45:53;15.10;99.90
4530;DHT22;2277;51.626;7.516;2023-08-31T00:48:22;15.10;99.90
4530;DHT22;2277;51.626;7.516;2023-08-31T00:50:48;15.10;99.90
4530;DHT22;2277;51.626;7.516;2023-08-31T00:53:14;15.20;99.90
4530;DHT22;2277;51.626;7.516;2023-08-31T00:55:41;15.10;99.90
4530;DHT22;2277;51.626;7.516;2023-08-31T00:58:07;15.20;99.90
4530;DHT22;2277;51.626;7.516;2023-08-31T01:12:04;15.00;99.90
4530;DHT22;2277;51.626;7.516;2023-08-31T01:17:40;15.00;99.90
4530;DHT22;2277;51.626;7.516;2023-08-31T01:20:11;15.10;99.90
4530;DHT22;2277;51.626;7.516;2023-08-31T01:22:51;15.00;99.90
4530;DHT22;2277;51.626;7.516;2023-08-31T01:25:20;14.90;99.90
4530;DHT22;2277;51.626;7.516;2023-08-31T01:27:47;14.90;99.90
4530;DHT22;2277;51.626;7.516;2023-08-31T01:30:12;15.00;99.90
4530;DHT22;2277;51.626;7.516;2023-08-31T01:32:45;15.00;99.90
4530;DHT22;2277;51.626;7.516;2023-08-31T01:35:11;14.90;99.90
4530;DHT22;2277;51.626;7.516;2023-08-31T01:37:45;15.00;99.90
4530;DHT22;2277;51.626;7.516;2023-08-31T01:40:12;15.00;99.90
4530;DHT22;2277;51.626;7.516;2023-08-31T01:42:42;15.00;99.90
4530;DHT22;2277;51.626;7.516;2023-08-31T01:45:08;15.10;99.90
4530;DHT22;2277;51.626;7.516;2023-08-31T01:47:35;15.00;99.90
4530;DHT22;2277;51.626;7.516;2023-08-31T01:50:01;15.00;99.90
4530;DHT22;2277;51.626;7.516;2023-08-31T01:52:27;15.00;99.90
4530;DHT22;2277;51.626;7.516;2023-08-31T01:54:53;15.10;99.90
4530;DHT22;2277;51.626;7.516;2023-08-31T01:57:18;15.10;99.90
4530;DHT22;2277;51.626;7.516;2023-08-31T01:59:44;15.10;99.90
4530;DHT22;2277;51.626;7.516;2023-08-31T02:02:09;15.10;99.90
4530;DHT22;2277;51.626;7.516;2023-08-31T02:04:35;15.00;99.90
4530;DHT22;2277;51.626;7.516;2023-08-31T02:07:00;15.00;99.90
4530;DHT22;2277;51.626;7.516;2023-08-31T02:09:26;15.00;99.90
4530;DHT22;2277;51.626;7.516;2023-08-31T02:11:52;15.00;99.90
4530;DHT22;2277;51.626;7.516;2023-08-31T02:14:18;14.90;99.90
4530;DHT22;2277;51.626;7.516;2023-08-31T02:16:43;14.90;99.90
4530;DHT22;2277;51.626;7.516;2023-08-31T02:19:09;14.80;99.90
4530;DHT22;2277;51.626;7.516;2023-08-31T02:21:35;14.80;99.90
4530;DHT22;2277;51.626;7.516;2023-08-31T02:24:01;14.70;99.90
4530;DHT22;2277;51.626;7.516;2023-08-31T02:26:26;14.70;99.90
4530;DHT22;2277;51.626;7.516;2023-08-31T02:28:52;14.60;99.90
4530;DHT22;2277;51.626;7.516;2023-08-31T02:31:17;14.60;99.90
4530;DHT22;2277;51.626;7.516;2023-08-31T02:33:46;14.50;99.90
4530;DHT22;2277;51.626;7.516;2023-08-31T02:36:11;14.50;99.90
4530;DHT22;2277;51.626;7.516;2023-08-31T02:38:37;14.40;99.90
4530;DHT22;2277;51.626;7.516;2023-08-31T02:41:02;14.40;99.90
4530;DHT22;2277;51.626;7.516;2023-08-31T02:43:28;14.30;99.90
4530;DHT22;2277;51.626;7.516;2023-08-31T02:45:59;14.30;99.90
4530;DHT22;2277;51.626;7.516;2023-08-31T02:48:25;14.30;99.90
4530;DHT22;2277;51.626;7.516;2023-08-31T02:50:53;14.20;99.90
4530;DHT22;2277;51.626;7.516;2023-08-31T02:53:19;14.20;99.90
4530;DHT22;2277;51.626;7.516;2023-08-31T02:55:45;14.10;99.90
4530;DHT22;2277;51.626;7.516;2023-08-31T02:58:10;14.20;99.90
4530;DHT22;2277;51.626;7.516;2023-08-31T03:00:36;14.10;99.90
4530;DHT22;2277;51.626;7.516;2023-08-31T03:03:05;14.10;99.90
4530;DHT22;2277;51.626;7.516;2023-08-31T03:05:30;14.10;99.90
4530;DHT22;2277;51.626;7.516;2023-08-31T03:07:56;14.00;99.90
4530;DHT22;2277;51.626;7.516;2023-08-31T03:10:22;13.90;99.90
4530;DHT22;2277;51.626;7.516;2023-08-31T03:12:48;13.80;99.90
4530;DHT22;2277;51.626;7.516;2023-08-31T03:15:13;13.80;99.90
4530;DHT22;2277;51.626;7.516;2023-08-31T03:17:39;13.80;99.90
4530;DHT22;2277;51.626;7.516;2023-08-31T03:20:05;13.80;99.90
4530;DHT22;2277;51.626;7.516;2023-08-31T03:22:31;13.70;99.90
4530;DHT22;2277;51.626;7.516;2023-08-31T03:24:57;13.70;99.90
4530;DHT22;2277;51.626;7.516;2023-08-31T03:27:23;13.70;99.90
4530;DHT22;2277;51.626;7.516;2023-08-31T03:29:48;13.70;99.90
4530;DHT22;2277;51.626;7.516;2023-08-31T03:32:14;13.70;99.90
4530;DHT22;2277;51.626;7.516;2023-08-31T03:34:39;13.70;99.90
4530;DHT22;2277;51.626;7.516;2023-08-31T03:37:05;13.70;99.90
4530;DHT22;2277;51.626;7.516;2023-08-31T03:39:30;13.70;99.90
4530;DHT22;2277;51.626;7.516;2023-08-31T03:41:56;13.70;99.90
4530;DHT22;2277;51.626;7.516;2023-08-31T03:44:21;13.70;99.90
4530;DHT22;2277;51.626;7.516;2023-08-31T03:46:47;13.70;99.90
4530;DHT22;2277;51.626;7.516;2023-08-31T03:49:22;13.70;99.90
4530;DHT22;2277;51.626;7.516;2023-08-31T03:51:47;13.70;99.90
4530;DHT22;2277;51.626;7.516;2023-08-31T03:54:13;13.70;99.90
4530;DHT22;2277;51.626;7.516;2023-08-31T03:56:39;13.60;99.90
4530;DHT22;2277;51.626;7.516;2023-08-31T03:59:05;13.60;99.90
4530;DHT22;2277;51.626;7.516;2023-08-31T04:01:31;13.60;99.90
4530;DHT22;2277;51.626;7.516;2023-08-31T04:03:57;13.50;99.90
4530;DHT22;2277;51.626;7.516;2023-08-31T04:06:22;13.50;99.90
4530;DHT22;2277;51.626;7.516;2023-08-31T04:08:48;13.50;99.90
4530;DHT22;2277;51.626;7.516;2023-08-31T04:11:13;13.60;99.90
4530;DHT22;2277;51.626;7.516;2023-08-31T04:13:39;13.60;99.90
4530;DHT22;2277;51.626;7.516;2023-08-31T04:16:05;13.60;99.90
4530;DHT22;2277;51.626;7.516;2023-08-31T04:18:31;13.60;99.90
4530;DHT22;2277;51.626;7.516;2023-08-31T04:20:56;13.60;99.90
4530;DHT22;2277;51.626;7.516;2023-08-31T04:23:24;13.60;99.90
4530;DHT22;2277;51.626;7.516;2023-08-31T04:25:50;13.60;99.90
4530;DHT22;2277;51.626;7.516;2023-08-31T04:28:16;13.60;99.90
4530;DHT22;2277;51.626;7.516;2023-08-31T04:30:42;13.60;99.90
4530;DHT22;2277;51.626;7.516;2023-08-31T04:33:08;13.60;99.90
4530;DHT22;2277;51.626;7.516;2023-08-31T04:35:34;13.50;99.90
4530;DHT22;2277;51.626;7.516;2023-08-31T04:37:59;13.50;99.90
4530;DHT22;2277;51.626;7.516;2023-08-31T04:40:27;13.50;99.90
4530;DHT22;2277;51.626;7.516;2023-08-31T04:42:52;13.40;99.90
4530;DHT22;2277;51.626;7.516;2023-08-31T04:45:18;13.50;99.90
4530;DHT22;2277;51.626;7.516;2023-08-31T04:47:43;13.60;99.90
4530;DHT22;2277;51.626;7.516;2023-08-31T04:50:09;13.50;99.90
4530;DHT22;2277;51.626;7.516;2023-08-31T04:52:35;13.60;99.90
4530;DHT22;2277;51.626;7.516;2023-08-31T04:55:01;13.60;99.90
4530;DHT22;2277;51.626;7.516;2023-08-31T04:57:29;13.60;99.90
4530;DHT22;2277;51.626;7.516;2023-08-31T04:59:54;13.60;99.90
4530;DHT22;2277;51.626;7.516;2023-08-31T05:02:20;13.60;99.90
4530;DHT22;2277;51.626;7.516;2023-08-31T05:04:46;13.60;99.90
4530;DHT22;2277;51.626;7.516;2023-08-31T05:07:11;13.60;99.90
4530;DHT22;2277;51.626;7.516;2023-08-31T05:09:37;13.70;99.90
4530;DHT22;2277;51.626;7.516;2023-08-31T05:12:02;13.60;99.90
4530;DHT22;2277;51.626;7.516;2023-08-31T05:14:28;13.50;99.90
4530;DHT22;2277;51.626;7.516;2023-08-31T05:16:54;13.50;99.90
4530;DHT22;2277;51.626;7.516;2023-08-31T05:19:20;13.50;99.90
4530;DHT22;2277;51.626;7.516;2023-08-31T05:21:46;13.50;99.90
4530;DHT22;2277;51.626;7.516;2023-08-31T05:24:11;13.60;99.90
4530;DHT22;2277;51.626;7.516;2023-08-31T05:26:37;13.50;99.90
4530;DHT22;2277;51.626;7.516;2023-08-31T05:29:02;13.50;99.90
4530;DHT22;2277;51.626;7.516;2023-08-31T05:31:31;13.40;99.90
4530;DHT22;2277;51.626;7.516;2023-08-31T05:33:57;13.40;99.90
4530;DHT22;2277;51.626;7.516;2023-08-31T05:36:22;13.50;99.90
4530;DHT22;2277;51.626;7.516;2023-08-31T05:38:48;13.50;99.90
4530;DHT22;2277;51.626;7.516;2023-08-31T05:41:14;13.50;99.90
4530;DHT22;2277;51.626;7.516;2023-08-31T05:43:39;13.50;99.90
4530;DHT22;2277;51.626;7.516;2023-08-31T05:46:08;13.50;99.90
4530;DHT22;2277;51.626;7.516;2023-08-31T05:48:34;13.50;99.90
4530;DHT22;2277;51.626;7.516;2023-08-31T05:51:00;13.50;99.90
4530;DHT22;2277;51.626;7.516;2023-08-31T05:53:26;13.50;99.90
4530;DHT22;2277;51.626;7.516;2023-08-31T05:55:51;13.60;99.90
4530;DHT22;2277;51.626;7.516;2023-08-31T05:58:17;13.60;99.90
4530;DHT22;2277;51.626;7.516;2023-08-31T06:00:42;13.70;99.90
4530;DHT22;2277;51.626;7.516;2023-08-31T06:03:08;13.70;99.90
4530;DHT22;2277;51.626;7.516;2023-08-31T06:05:35;13.70;99.90
4530;DHT22;2277;51.626;7.516;2023-08-31T06:08:01;13.70;99.90
4530;DHT22;2277;51.626;7.516;2023-08-31T06:10:26;13.70;99.90
4530;DHT22;2277;51.626;7.516;2023-08-31T06:12:52;13.80;99.90
4530;DHT22;2277;51.626;7.516;2023-08-31T06:15:17;13.80;99.90
4530;DHT22;2277;51.626;7.516;2023-08-31T06:17:43;13.80;99.90
4530;DHT22;2277;51.626;7.516;2023-08-31T06:20:09;13.90;99.90
4530;DHT22;2277;51.626;7.516;2023-08-31T06:22:35;14.00;99.90
4530;DHT22;2277;51.626;7.516;2023-08-31T06:25:01;14.00;99.90
4530;DHT22;2277;51.626;7.516;2023-08-31T06:27:28;14.10;99.90
4530;DHT22;2277;51.626;7.516;2023-08-31T06:29:54;14.20;99.90
4530;DHT22;2277;51.626;7.516;2023-08-31T06:32:19;14.30;99.90
4530;DHT22;2277;51.626;7.516;2023-08-31T06:34:45;14.30;99.90
4530;DHT22;2277;51.626;7.516;2023-08-31T06:37:11;14.30;99.90
4530;DHT22;2277;51.626;7.516;2023-08-31T06:39:36;14.40;99.90
4530;DHT22;2277;51.626;7.516;2023-08-31T06:42:02;14.40;99.90
4530;DHT22;2277;51.626;7.516;2023-08-31T06:44:29;14.40;99.90
4530;DHT22;2277;51.626;7.516;2023-08-31T06:46:55;14.50;99.90
4530;DHT22;2277;51.626;7.516;2023-08-31T06:49:22;14.60;99.90
4530;DHT22;2277;51.626;7.516;2023-08-31T06:51:48;14.70;99.90
4530;DHT22;2277;51.626;7.516;2023-08-31T06:54:13;14.80;99.90
4530;DHT22;2277;51.626;7.516;2023-08-31T06:56:39;14.90;99.90
4530;DHT22;2277;51.626;7.516;2023-08-31T06:59:04;14.90;99.90
4530;DHT22;2277;51.626;7.516;2023-08-31T07:01:31;15.00;99.90
4530;DHT22;2277;51.626;7.516;2023-08-31T07:03:58;15.00;99.90
4530;DHT22;2277;51.626;7.516;2023-08-31T07:06:23;15.00;99.90
4530;DHT22;2277;51.626;7.516;2023-08-31T07:08:49;15.00;99.90
4530;DHT22;2277;51.626;7.516;2023-08-31T07:11:15;15.10;99.90
4530;DHT22;2277;51.626;7.516;2023-08-31T07:13:41;15.20;99.90
4530;DHT22;2277;51.626;7.516;2023-08-31T07:16:07;15.20;99.90
4530;DHT22;2277;51.626;7.516;2023-08-31T07:18:32;15.30;99.90
4530;DHT22;2277;51.626;7.516;2023-08-31T07:20:58;15.40;99.90
4530;DHT22;2277;51.626;7.516;2023-08-31T07:23:23;15.50;99.90
4530;DHT22;2277;51.626;7.516;2023-08-31T07:25:49;15.60;99.90
4530;DHT22;2277;51.626;7.516;2023-08-31T07:28:15;15.70;99.90
4530;DHT22;2277;51.626;7.516;2023-08-31T07:30:40;15.80;99.90
4530;DHT22;2277;51.626;7.516;2023-08-31T07:33:06;15.90;99.90
4530;DHT22;2277;51.626;7.516;2023-08-31T07:35:32;16.00;99.90
4530;DHT22;2277;51.626;7.516;2023-08-31T07:37:58;16.20;99.90
4530;DHT22;2277;51.626;7.516;2023-08-31T07:40:23;16.40;99.90
4530;DHT22;2277;51.626;7.516;2023-08-31T07:42:50;16.50;99.90
4530;DHT22;2277;51.626;7.516;2023-08-31T07:45:16;16.60;99.90
4530;DHT22;2277;51.626;7.516;2023-08-31T07:47:42;16.80;99.90
4530;DHT22;2277;51.626;7.516;2023-08-31T07:50:08;17.00;99.90
4530;DHT22;2277;51.626;7.516;2023-08-31T07:52:34;17.20;99.90
4530;DHT22;2277;51.626;7.516;2023-08-31T07:55:00;17.30;99.90
4530;DHT22;2277;51.626;7.516;2023-08-31T07:57:26;17.30;99.90
4530;DHT22;2277;51.626;7.516;2023-08-31T07:59:51;17.40;99.90
4530;DHT22;2277;51.626;7.516;2023-08-31T08:02:17;17.40;99.90
4530;DHT22;2277;51.626;7.516;2023-08-31T08:04:45;17.40;99.90
4530;DHT22;2277;51.626;7.516;2023-08-31T08:07:10;17.40;99.90
4530;DHT22;2277;51.626;7.516;2023-08-31T08:09:36;17.40;99.90
4530;DHT22;2277;51.626;7.516;2023-08-31T08:12:01;17.30;99.90
4530;DHT22;2277;51.626;7.516;2023-08-31T08:14:28;17.20;99.90
4530;DHT22;2277;51.626;7.516;2023-08-31T08:16:54;17.20;99.90
4530;DHT22;2277;51.626;7.516;2023-08-31T08:19:23;17.10;99.90
4530;DHT22;2277;51.626;7.516;2023-08-31T08:21:49;17.10;99.90
4530;DHT22;2277;51.626;7.516;2023-08-31T08:24:15;17.20;99.90
4530;DHT22;2277;51.626;7.516;2023-08-31T08:26:40;17.20;99.90
4530;DHT22;2277;51.626;7.516;2023-08-31T08:29:06;17.30;99.90
4530;DHT22;2277;51.626;7.516;2023-08-31T08:31:31;17.30;99.90
4530;DHT22;2277;51.626;7.516;2023-08-31T08:33:57;17.30;99.90
4530;DHT22;2277;51.626;7.516;2023-08-31T08:36:22;17.20;99.90
4530;DHT22;2277;51.626;7.516;2023-08-31T08:38:48;17.20;99.90
4530;DHT22;2277;51.626;7.516;2023-08-31T08:41:14;17.10;99.90
4530;DHT22;2277;51.626;7.516;2023-08-31T08:43:43;17.20;99.90
4530;DHT22;2277;51.626;7.516;2023-08-31T08:46:09;17.10;99.90
4530;DHT22;2277;51.626;7.516;2023-08-31T08:48:36;17.30;99.90
4530;DHT22;2277;51.626;7.516;2023-08-31T08:51:03;17.30;99.90
4530;DHT22;2277;51.626;7.516;2023-08-31T08:53:29;17.40;99.90
4530;DHT22;2277;51.626;7.516;2023-08-31T08:55:55;17.50;99.90
4530;DHT22;2277;51.626;7.516;2023-08-31T08:58:22;17.50;99.90
4530;DHT22;2277;51.626;7.516;2023-08-31T09:00:48;17.60;99.90
4530;DHT22;2277;51.626;7.516;2023-08-31T09:03:13;17.70;99.90
4530;DHT22;2277;51.626;7.516;2023-08-31T09:05:39;17.90;99.90
4530;DHT22;2277;51.626;7.516;2023-08-31T09:08:06;17.90;99.90
4530;DHT22;2277;51.626;7.516;2023-08-31T09:10:40;18.00;99.90
4530;DHT22;2277;51.626;7.516;2023-08-31T09:13:13;18.00;99.90
4530;DHT22;2277;51.626;7.516;2023-08-31T09:15:47;18.00;99.90
4530;DHT22;2277;51.626;7.516;2023-08-31T09:18:16;18.00;99.90
4530;DHT22;2277;51.626;7.516;2023-08-31T09:20:48;18.10;99.90
4530;DHT22;2277;51.626;7.516;2023-08-31T09:23:14;18.10;99.90
4530;DHT22;2277;51.626;7.516;2023-08-31T09:25:44;18.20;99.90
4530;DHT22;2277;51.626;7.516;2023-08-31T09:28:12;18.30;99.90
4530;DHT22;2277;51.626;7.516;2023-08-31T09:30:37;18.40;99.90
4530;DHT22;2277;51.626;7.516;2023-08-31T09:33:09;18.60;99.90
4530;DHT22;2277;51.626;7.516;2023-08-31T09:35:46;18.80;99.90
4530;DHT22;2277;51.626;7.516;2023-08-31T09:38:12;18.90;99.90
4530;DHT22;2277;51.626;7.516;2023-08-31T09:40:39;19.00;99.90
4530;DHT22;2277;51.626;7.516;2023-08-31T09:43:05;19.20;99.90
4530;DHT22;2277;51.626;7.516;2023-08-31T09:45:32;19.20;99.90
4530;DHT22;2277;51.626;7.516;2023-08-31T09:48:02;19.30;99.90
4530;DHT22;2277;51.626;7.516;2023-08-31T09:50:32;19.40;99.90
4530;DHT22;2277;51.626;7.516;2023-08-31T09:53:03;19.40;99.90
4530;DHT22;2277;51.626;7.516;2023-08-31T09:55:30;19.50;99.90
4530;DHT22;2277;51.626;7.516;2023-08-31T09:57:57;19.50;99.90
4530;DHT22;2277;51.626;7.516;2023-08-31T10:00:28;19.50;99.90
4530;DHT22;2277;51.626;7.516;2023-08-31T10:02:56;19.40;99.90
4530;DHT22;2277;51.626;7.516;2023-08-31T10:05:23;19.40;99.90
4530;DHT22;2277;51.626;7.516;2023-08-31T10:07:50;19.30;99.90
4530;DHT22;2277;51.626;7.516;2023-08-31T10:10:16;19.20;99.90
4530;DHT22;2277;51.626;7.516;2023-08-31T10:12:42;19.20;99.90
4530;DHT22;2277;51.626;7.516;2023-08-31T10:15:10;19.10;99.90
4530;DHT22;2277;51.626;7.516;2023-08-31T10:17:36;19.20;99.90
4530;DHT22;2277;51.626;7.516;2023-08-31T10:20:02;19.10;99.90
4530;DHT22;2277;51.626;7.516;2023-08-31T10:22:28;19.10;99.90
4530;DHT22;2277;51.626;7.516;2023-08-31T10:24:59;19.10;99.90
4530;DHT22;2277;51.626;7.516;2023-08-31T10:27:25;19.10;99.90
4530;DHT22;2277;51.626;7.516;2023-08-31T10:29:51;19.10;99.90
4530;DHT22;2277;51.626;7.516;2023-08-31T10:32:19;19.10;99.90
4530;DHT22;2277;51.626;7.516;2023-08-31T10:35:05;19.10;99.90
4530;DHT22;2277;51.626;7.516;2023-08-31T10:37:31;19.10;99.90
4530;DHT22;2277;51.626;7.516;2023-08-31T10:40:10;19.10;99.90
4530;DHT22;2277;51.626;7.516;2023-08-31T10:42:43;19.10;99.90
4530;DHT22;2277;51.626;7.516;2023-08-31T10:45:09;19.00;99.90
4530;DHT22;2277;51.626;7.516;2023-08-31T10:47:38;19.00;99.90
4530;DHT22;2277;51.626;7.516;2023-08-31T10:50:22;18.90;99.90
4530;DHT22;2277;51.626;7.516;2023-08-31T10:52:48;18.90;99.90
4530;DHT22;2277;51.626;7.516;2023-08-31T10:55:14;18.80;99.90
4530;DHT22;2277;51.626;7.516;2023-08-31T10:57:41;18.70;99.90
4530;DHT22;2277;51.626;7.516;2023-08-31T11:00:07;18.70;99.90
4530;DHT22;2277;51.626;7.516;2023-08-31T11:02:34;18.70;99.90
4530;DHT22;2277;51.626;7.516;2023-08-31T11:05:10;18.70;99.90
4530;DHT22;2277;51.626;7.516;2023-08-31T11:07:40;18.70;99.90
4530;DHT22;2277;51.626;7.516;2023-08-31T11:12:44;18.70;99.90
4530;DHT22;2277;51.626;7.516;2023-08-31T11:15:15;18.60;99.90
4530;DHT22;2277;51.626;7.516;2023-08-31T11:17:42;18.60;99.90
4530;DHT22;2277;51.626;7.516;2023-08-31T11:20:12;18.60;99.90
4530;DHT22;2277;51.626;7.516;2023-08-31T11:22:40;18.50;99.90
4530;DHT22;2277;51.626;7.516;2023-08-31T11:25:07;18.50;99.90
4530;DHT22;2277;51.626;7.516;2023-08-31T11:27:32;18.50;99.90
4530;DHT22;2277;51.626;7.516;2023-08-31T11:29:58;18.50;99.90
4530;DHT22;2277;51.626;7.516;2023-08-31T11:32:24;18.70;99.90
4530;DHT22;2277;51.626;7.516;2023-08-31T11:34:50;18.90;99.90
4530;DHT22;2277;51.626;7.516;2023-08-31T11:37:15;19.00;99.90
4530;DHT22;2277;51.626;7.516;2023-08-31T11:39:53;19.10;99.90
4530;DHT22;2277;51.626;7.516;2023-08-31T11:42:20;19.20;99.90
4530;DHT22;2277;51.626;7.516;2023-08-31T11:44:50;19.20;99.90
4530;DHT22;2277;51.626;7.516;2023-08-31T11:47:18;19.30;99.90
4530;DHT22;2277;51.626;7.516;2023-08-31T11:49:46;19.40;99.90
4530;DHT22;2277;51.626;7.516;2023-08-31T11:52:12;19.50;99.90
4530;DHT22;2277;51.626;7.516;2023-08-31T11:54:39;19.50;99.90
4530;DHT22;2277;51.626;7.516;2023-08-31T11:57:09;19.60;99.90
4530;DHT22;2277;51.626;7.516;2023-08-31T11:59:35;19.70;99.90
4530;DHT22;2277;51.626;7.516;2023-08-31T12:02:02;19.90;99.90
4530;DHT22;2277;51.626;7.516;2023-08-31T12:04:30;20.20;99.90
4530;DHT22;2277;51.626;7.516;2023-08-31T12:07:01;20.50;99.90
4530;DHT22;2277;51.626;7.516;2023-08-31T12:09:30;20.80;99.90
4530;DHT22;2277;51.626;7.516;2023-08-31T12:11:55;21.20;99.90
4530;DHT22;2277;51.626;7.516;2023-08-31T12:14:25;21.60;99.90
4530;DHT22;2277;51.626;7.516;2023-08-31T12:16:52;21.90;99.90
4530;DHT22;2277;51.626;7.516;2023-08-31T12:19:18;22.10;99.90
4530;DHT22;2277;51.626;7.516;2023-08-31T12:21:45;22.30;99.90
4530;DHT22;2277;51.626;7.516;2023-08-31T12:24:12;22.40;99.90
4530;DHT22;2277;51.626;7.516;2023-08-31T12:26:38;22.60;99.90
4530;DHT22;2277;51.626;7.516;2023-08-31T12:29:04;22.80;99.90
4530;DHT22;2277;51.626;7.516;2023-08-31T12:31:30;23.10;99.90
4530;DHT22;2277;51.626;7.516;2023-08-31T12:33:56;23.40;99.90
4530;DHT22;2277;51.626;7.516;2023-08-31T12:36:21;23.60;99.90
4530;DHT22;2277;51.626;7.516;2023-08-31T12:38:47;23.70;99.90
4530;DHT22;2277;51.626;7.516;2023-08-31T12:41:12;23.80;99.90
4530;DHT22;2277;51.626;7.516;2023-08-31T12:43:38;23.80;99.90
4530;DHT22;2277;51.626;7.516;2023-08-31T12:46:04;23.90;99.90
4530;DHT22;2277;51.626;7.516;2023-08-31T12:48:34;24.10;99.90
4530;DHT22;2277;51.626;7.516;2023-08-31T12:51:00;24.10;99.90
4530;DHT22;2277;51.626;7.516;2023-08-31T12:53:26;24.10;99.90
4530;DHT22;2277;51.626;7.516;2023-08-31T12:55:52;24.10;99.90
4530;DHT22;2277;51.626;7.516;2023-08-31T12:58:18;24.00;99.90
4530;DHT22;2277;51.626;7.516;2023-08-31T13:00:44;23.90;99.90
4530;DHT22;2277;51.626;7.516;2023-08-31T13:03:11;23.80;99.90
4530;DHT22;2277;51.626;7.516;2023-08-31T13:05:40;23.70;99.90
4530;DHT22;2277;51.626;7.516;2023-08-31T13:08:07;23.50;99.90
4530;DHT22;2277;51.626;7.516;2023-08-31T13:10:33;23.40;99.90
4530;DHT22;2277;51.626;7.516;2023-08-31T13:12:58;23.40;99.90
4530;DHT22;2277;51.626;7.516;2023-08-31T13:15:24;23.40;99.90
4530;DHT22;2277;51.626;7.516;2023-08-31T13:17:49;23.40;99.90
4530;DHT22;2277;51.626;7.516;2023-08-31T13:20:15;23.40;99.90
4530;DHT22;2277;51.626;7.516;2023-08-31T13:22:40;23.50;99.90
4530;DHT22;2277;51.626;7.516;2023-08-31T13:25:06;23.30;99.90
4530;DHT22;2277;51.626;7.516;2023-08-31T13:27:32;23.40;99.90
4530;DHT22;2277;51.626;7.516;2023-08-31T13:30:01;23.50;99.90
4530;DHT22;2277;51.626;7.516;2023-08-31T13:32:26;23.70;99.90
4530;DHT22;2277;51.626;7.516;2023-08-31T13:34:53;23.70;99.90
4530;DHT22;2277;51.626;7.516;2023-08-31T13:37:19;23.70;99.90
4530;DHT22;2277;51.626;7.516;2023-08-31T13:39:44;23.80;99.90
4530;DHT22;2277;51.626;7.516;2023-08-31T13:42:10;23.70;99.90
4530;DHT22;2277;51.626;7.516;2023-08-31T13:44:35;23.70;99.90
4530;DHT22;2277;51.626;7.516;2023-08-31T13:47:01;23.60;99.90
4530;DHT22;2277;51.626;7.516;2023-08-31T13:49:29;23.70;99.90
4530;DHT22;2277;51.626;7.516;2023-08-31T13:51:54;23.90;99.90
4530;DHT22;2277;51.626;7.516;2023-08-31T13:54:20;24.10;99.90
4530;DHT22;2277;51.626;7.516;2023-08-31T13:56:45;24.30;99.90
4530;DHT22;2277;51.626;7.516;2023-08-31T13:59:11;24.40;99.90
4530;DHT22;2277;51.626;7.516;2023-08-31T14:01:37;24.60;99.90
4530;DHT22;2277;51.626;7.516;2023-08-31T14:04:03;24.70;99.90
4530;DHT22;2277;51.626;7.516;2023-08-31T14:06:29;24.50;99.90
4530;DHT22;2277;51.626;7.516;2023-08-31T14:08:55;24.30;99.90
4530;DHT22;2277;51.626;7.516;2023-08-31T14:11:20;24.20;99.90
4530;DHT22;2277;51.626;7.516;2023-08-31T14:13:46;24.20;99.90
4530;DHT22;2277;51.626;7.516;2023-08-31T14:16:12;24.10;99.90
4530;DHT22;2277;51.626;7.516;2023-08-31T14:18:37;23.80;99.90
4530;DHT22;2277;51.626;7.516;2023-08-31T14:21:03;23.70;99.90
4530;DHT22;2277;51.626;7.516;2023-08-31T14:23:29;23.50;99.90
4530;DHT22;2277;51.626;7.516;2023-08-31T14:26:01;23.40;99.90
4530;DHT22;2277;51.626;7.516;2023-08-31T14:28:27;23.30;99.90
4530;DHT22;2277;51.626;7.516;2023-08-31T14:30:52;23.20;99.90
4530;DHT22;2277;51.626;7.516;2023-08-31T14:33:18;23.20;99.90
4530;DHT22;2277;51.626;7.516;2023-08-31T14:35:43;23.10;99.90
4530;DHT22;2277;51.626;7.516;2023-08-31T14:38:10;23.00;99.90
4530;DHT22;2277;51.626;7.516;2023-08-31T14:40:38;23.00;99.90
4530;DHT22;2277;51.626;7.516;2023-08-31T14:43:06;22.90;99.90
4530;DHT22;2277;51.626;7.516;2023-08-31T14:45:32;22.80;99.90
4530;DHT22;2277;51.626;7.516;2023-08-31T14:47:57;22.70;99.90
4530;DHT22;2277;51.626;7.516;2023-08-31T14:50:23;22.60;99.90
4530;DHT22;2277;51.626;7.516;2023-08-31T14:52:49;22.50;99.90
4530;DHT22;2277;51.626;7.516;2023-08-31T14:55:14;22.40;99.90
4530;DHT22;2277;51.626;7.516;2023-08-31T14:57:40;22.30;99.90
4530;DHT22;2277;51.626;7.516;2023-08-31T15:00:08;22.20;99.90
4530;DHT22;2277;51.626;7.516;2023-08-31T15:02:34;22.00;99.90
4530;DHT22;2277;51.626;7.516;2023-08-31T15:05:00;21.80;99.90
4530;DHT22;2277;51.626;7.516;2023-08-31T15:07:25;21.70;99.90
4530;DHT22;2277;51.626;7.516;2023-08-31T15:09:52;21.60;99.90
4530;DHT22;2277;51.626;7.516;2023-08-31T15:12:17;21.40;99.90
4530;DHT22;2277;51.626;7.516;2023-08-31T15:14:43;21.20;99.90
4530;DHT22;2277;51.626;7.516;2023-08-31T15:17:08;21.00;99.90
4530;DHT22;2277;51.626;7.516;2023-08-31T15:19:34;20.70;99.90
4530;DHT22;2277;51.626;7.516;2023-08-31T15:22:00;20.40;99.90
4530;DHT22;2277;51.626;7.516;2023-08-31T15:24:25;20.10;99.90
4530;DHT22;2277;51.626;7.516;2023-08-31T15:26:51;20.00;99.90
4530;DHT22;2277;51.626;7.516;2023-08-31T15:29:17;19.90;99.90
4530;DHT22;2277;51.626;7.516;2023-08-31T15:31:43;19.90;99.90
4530;DHT22;2277;51.626;7.516;2023-08-31T15:34:11;19.80;99.90
4530;DHT22;2277;51.626;7.516;2023-08-31T15:36:37;19.70;99.90
4530;DHT22;2277;51.626;7.516;2023-08-31T15:39:03;19.70;99.90
4530;DHT22;2277;51.626;7.516;2023-08-31T15:41:29;19.60;99.90
4530;DHT22;2277;51.626;7.516;2023-08-31T15:43:59;19.50;99.90
4530;DHT22;2277;51.626;7.516;2023-08-31T15:46:26;19.50;99.90
4530;DHT22;2277;51.626;7.516;2023-08-31T15:48:52;19.50;99.90
4530;DHT22;2277;51.626;7.516;2023-08-31T15:51:17;19.40;99.90
4530;DHT22;2277;51.626;7.516;2023-08-31T15:53:43;19.40;99.90
4530;DHT22;2277;51.626;7.516;2023-08-31T15:56:08;19.40;99.90
4530;DHT22;2277;51.626;7.516;2023-08-31T15:58:34;19.40;99.90
4530;DHT22;2277;51.626;7.516;2023-08-31T16:00:59;19.40;99.90
4530;DHT22;2277;51.626;7.516;2023-08-31T16:03:32;19.30;99.90
4530;DHT22;2277;51.626;7.516;2023-08-31T16:05:58;19.30;99.90
4530;DHT22;2277;51.626;7.516;2023-08-31T16:08:25;19.40;99.90
4530;DHT22;2277;51.626;7.516;2023-08-31T16:10:50;19.30;99.90
4530;DHT22;2277;51.626;7.516;2023-08-31T16:13:17;19.30;99.90
4530;DHT22;2277;51.626;7.516;2023-08-31T16:15:46;19.30;99.90